DAUH

Oued Irara Airport

Hassi Messaoud, Algeria
TAF DAUH 212300Z 2200/2224 VRB02KT CAVOK PROB30 TEMPO 2200/2206 FEW040TCU BECMG 2201/2204 34012KT PROB30 TEMPO 2206/2212 5000 -RA FEW030CB BECMG 2216/2219 26010KT
Issued Valid From Valid To
Jan-21 @ 23:00 UTC
(2 hours ago)
Jan-22 @ 00:00 UTC
(52 minutes ago)
Jan-23 @ 00:00 UTC
(in 23 hours)
Jan-22 @ 00:00 to Jan-22 @ 01:00
TAF DAUH 212300Z 2200/2224 VRB02KT CAVOK
Wind Visibility Clouds Conditions
Variable at 2 knots 10,000+ meters
  • No significant clouds
Temporary  (Probability 30%) Jan-22 @ 00:00 to Jan-22 @ 06:00
PROB30 TEMPO 2200/2206 FEW040TCU
Clouds
  • Few at 4,000' AGL
Becoming Jan-22 @ 01:00 to Jan-22 @ 16:00
BECMG 2201/2204 34012KT
Wind Visibility Clouds Conditions
340° at 12 knots 10,000+ meters
  • No significant clouds
Temporary  (Probability 30%) Jan-22 @ 06:00 to Jan-22 @ 12:00
PROB30 TEMPO 2206/2212 5000 -RA FEW030CB
Visibility Clouds Conditions
5,005 meters
  • Few at 3,000' AGL
  • Light Rain
Becoming Jan-22 @ 16:00 to Jan-23 @ 00:00
BECMG 2216/2219 26010KT
Wind Visibility Clouds Conditions
260° at 10 knots 10,000+ meters
  • No significant clouds
TAF DAUH 212300Z 2200/2224 VRB02KT CAVOK PROB30 TEMPO 2200/2206 FEW040TCU BECMG 2201/2204 34012KT PROB30 TEMPO 2206/2212 5000 -RA FEW030CB BECMG 2216/2219 26010KT
Issued Jan-21 @ 23:00 UTC
(2 hours ago)
Valid From Jan-22 @ 00:00 UTC
(52 minutes ago)
Valid To Jan-23 @ 00:00 UTC
(in 23 hours)
Jan-22 @ 00:00 - Jan-22 @ 01:00
Wind Visibility
Variable at 2 knots 10,000+ meters
Clouds
  • No significant clouds
Conditions
Probability 30% Temporary Jan-22 @ 00:00 - Jan-22 @ 06:00
Clouds
  • Few at 4,000' AGL
Becoming Jan-22 @ 01:00 - Jan-22 @ 16:00
Wind Visibility
340° at 12 knots 10,000+ meters
Clouds
  • No significant clouds
Conditions
Probability 30% Temporary Jan-22 @ 06:00 - Jan-22 @ 12:00
Clouds
  • Few at 3,000' AGL
Conditions
  • Light Rain
Becoming Jan-22 @ 16:00 - Jan-23 @ 00:00
Wind Visibility
260° at 10 knots 10,000+ meters
Clouds
  • No significant clouds
Conditions